Huvudsida
METAR-TAF:

METAR-TAF

Flygplatser :

Kemi-Torneå flygplats

Kemi, Finland

latitud: 65-47N, longitud: 024-35E, höjd: 15 m

Aktuellt väderrapport

Denna rapport gjordes för 29 minuter sedan, klockan 22:20 UTC
Vind 5 kt från väst/sydväst, varierande mellan syd och väst
Temperatur 14°C
Fuktighet 72%
Tryck 999 hPa
Sikt 10 km eller mer
Mulet på en höjd av 4900 ft
lätt regn,

METAR: EFKE 202220Z AUTO 24005KT 190V280 9999 -RA OVC049 14/09 Q0999

Tid: 01:49 (22:49 UTC)

Väderprognos

Denna rapport gjordes för 8 timmar och 20 minuter sedan, klockan 14:29 UTC
Prognos gäller från 20 kl. 15 UTC till 20 kl. 18 UTC
Vind 12 kt från väst
Sikt 10 km eller mer
Inga moln under 1 500 m eller inga cumulonimbus
Sannolikhet 30%
från 20 kl. 15 UTC till 20 kl. 18 UTC
Få moln på en höjd av 4000 ft, Cumulonimbus.

TAF: EFKE 201429Z 2015/2018 27012KT CAVOK PROB30 2015/2018 FEW040CB

Aktuella väderrapporter och prognoser från 4000 flygplatser (METAR- och TAF-rapporter).

De tillgängliga stationerna syns som gula och röda prickar på kartan.

För musen över prickarna för att se namnen på stationerna.

Klicka sedan för att få väderrapporter och prognoser.

För att ändra kartan: Klicka på de gröna knapparna med ett svart kors på för att zooma in; den gröna knappen med ett streck på för att zooma ut; eller på de gröna pilarna för angränsande kartor.


METAR-TAF: